Time;durP1;ratioP1;P1;durP2;ratioP2;P2;SDS_P1;SDS_P2;PMS_P1;PMS_P2;Temp;Humidity;BMP_temperature;BMP_pressure;BME280_temperature;BME280_humidity;BME280_pressure;Samples;Min_cycle;Max_cycle;Signal;HPM_P1;HPM_P2
2023/04/10 00:01:27;;;;;;;40.35;23.83;;;7.80;99.90;;;;;;5080902;28;20075;-82
2023/04/10 00:04:14;;;;;;;42.80;24.05;;;7.80;99.90;;;;;;5075790;28;20127;-83
2023/04/10 00:07:00;;;;;;;43.13;24.45;;;7.80;99.90;;;;;;5073969;28;20044;-80
2023/04/10 00:09:46;;;;;;;43.83;24.77;;;7.80;99.90;;;;;;5056539;28;20415;-82
2023/04/10 00:12:35;;;;;;;46.78;25.80;;;7.80;99.90;;;;;;5076463;28;20127;-84
2023/04/10 00:15:22;;;;;;;49.05;25.65;;;7.70;99.90;;;;;;5056821;28;20063;-82
2023/04/10 00:18:08;;;;;;;47.50;26.38;;;7.70;99.90;;;;;;5075443;28;20052;-82
2023/04/10 00:20:55;;;;;;;44.80;25.42;;;7.70;99.90;;;;;;5075824;28;20044;-81
2023/04/10 00:23:40;;;;;;;50.72;26.55;;;7.60;99.90;;;;;;5059316;28;20044;-82
2023/04/10 00:26:27;;;;;;;46.67;26.08;;;7.70;99.90;;;;;;5072985;28;20084;-81
2023/04/10 00:29:13;;;;;;;49.42;28.23;;;7.60;99.90;;;;;;5069469;28;20052;-82
2023/04/10 00:31:59;;;;;;;49.88;28.95;;;7.60;99.90;;;;;;5073338;28;20044;-82
2023/04/10 00:34:45;;;;;;;47.75;26.83;;;7.60;99.90;;;;;;5072514;28;20132;-85
2023/04/10 00:37:31;;;;;;;51.35;26.88;;;7.60;99.90;;;;;;5070923;28;20063;-84
2023/04/10 00:40:17;;;;;;;48.53;26.98;;;7.50;99.90;;;;;;5070631;28;20052;-84
2023/04/10 00:43:03;;;;;;;50.83;28.30;;;7.50;99.90;;;;;;5061589;28;20049;-83
2023/04/10 00:45:49;;;;;;;54.03;29.15;;;7.50;99.90;;;;;;5081100;28;20048;-83
2023/04/10 00:48:36;;;;;;;53.83;29.60;;;7.50;99.90;;;;;;5072162;28;20130;-82
2023/04/10 00:51:23;;;;;;;51.67;30.13;;;7.50;99.90;;;;;;5072511;28;20048;-82
2023/04/10 00:54:10;;;;;;;49.95;30.83;;;7.40;99.90;;;;;;5072685;28;20056;-81
2023/04/10 00:56:57;;;;;;;51.03;29.00;;;7.40;99.90;;;;;;5074029;28;20044;-83
2023/04/10 00:59:47;;;;;;;53.78;28.75;;;7.30;99.90;;;;;;5073557;28;20149;-82
2023/04/10 01:02:33;;;;;;;55.08;30.05;;;7.30;99.90;;;;;;5072368;28;20079;-82
2023/04/10 01:05:20;;;;;;;53.20;31.25;;;7.30;99.90;;;;;;5073011;28;20048;-82
2023/04/10 01:08:32;;;;;;;52.67;30.23;;;7.20;99.90;;;;;;5075481;28;20051;-85
2023/04/10 01:11:49;;;;;;;52.28;31.70;;;7.20;99.90;;;;;;5054238;28;20044;-80
2023/04/10 01:14:44;;;;;;;54.13;30.63;;;7.20;99.90;;;;;;5072885;28;20059;-80
2023/04/10 01:17:49;;;;;;;51.45;30.63;;;7.10;99.90;;;;;;5071718;28;20051;-80
2023/04/10 01:20:40;;;;;;;56.20;32.05;;;7.10;99.90;;;;;;5072548;28;20520;-80
2023/04/10 01:23:51;;;;;;;52.90;29.70;;;7.00;99.90;;;;;;5070954;28;20128;-80
2023/04/10 01:27:04;;;;;;;56.75;31.88;;;7.00;99.90;;;;;;5071338;28;20041;-81
2023/04/10 01:29:55;;;;;;;55.00;31.40;;;7.00;99.90;;;;;;5072366;28;20052;-82
2023/04/10 01:32:43;;;;;;;55.78;32.30;;;6.90;99.90;;;;;;5069725;28;20081;-81
2023/04/10 01:35:31;;;;;;;51.83;30.63;;;6.90;99.90;;;;;;5064020;28;20430;-81
2023/04/10 01:38:19;;;;;;;57.35;33.08;;;6.90;99.90;;;;;;5072870;28;20076;-80
2023/04/10 01:41:07;;;;;;;50.90;29.52;;;6.80;99.90;;;;;;5071372;28;20496;-81
2023/04/10 01:43:54;;;;;;;57.35;33.85;;;6.80;99.90;;;;;;5070976;28;20557;-80
2023/04/10 01:46:43;;;;;;;59.53;31.67;;;6.80;99.90;;;;;;5070631;28;20044;-80
2023/04/10 01:49:30;;;;;;;58.75;33.03;;;6.80;99.90;;;;;;5071500;28;20048;-81
2023/04/10 01:52:17;;;;;;;56.80;34.67;;;6.80;99.90;;;;;;5072177;28;20067;-80
2023/04/10 01:55:05;;;;;;;60.17;33.08;;;6.70;99.90;;;;;;5077222;28;20415;-81
2023/04/10 01:57:52;;;;;;;58.92;34.95;;;6.70;99.90;;;;;;5092651;28;20103;-81
2023/04/10 02:00:40;;;;;;;61.60;32.88;;;6.80;99.90;;;;;;5091792;28;20044;-82
2023/04/10 02:03:26;;;;;;;55.10;33.70;;;6.80;99.90;;;;;;5063050;28;20058;-81
2023/04/10 02:06:25;;;;;;;56.83;33.38;;;6.70;99.90;;;;;;5091632;28;20048;-80
2023/04/10 02:09:27;;;;;;;56.53;33.13;;;6.70;99.90;;;;;;5091392;28;20062;-81
2023/04/10 02:12:27;;;;;;;58.45;34.50;;;6.70;99.90;;;;;;5091546;28;20444;-80
2023/04/10 02:15:17;;;;;;;57.88;35.05;;;6.60;99.90;;;;;;5090873;28;20547;-80
2023/04/10 02:18:05;;;;;;;60.92;36.47;;;6.60;99.90;;;;;;5073529;28;20055;-80
2023/04/10 02:20:52;;;;;;;61.92;35.95;;;6.60;99.90;;;;;;5090418;28;20114;-81
2023/04/10 02:23:39;;;;;;;60.85;35.70;;;6.60;99.90;;;;;;5059479;28;20406;-81
2023/04/10 02:26:25;;;;;;;58.90;34.10;;;6.60;99.90;;;;;;5091649;28;20047;-82
2023/04/10 02:29:11;;;;;;;57.70;33.65;;;6.60;99.90;;;;;;5090927;28;20194;-82
2023/04/10 02:31:59;;;;;;;61.83;36.50;;;6.50;99.90;;;;;;5090273;28;20117;-81
2023/04/10 02:34:45;;;;;;;66.13;37.50;;;6.50;99.90;;;;;;5080179;28;20471;-82
2023/04/10 02:37:32;;;;;;;67.47;37.75;;;6.50;99.90;;;;;;5092161;28;20060;-81
2023/04/10 02:40:18;;;;;;;64.18;37.10;;;6.50;99.90;;;;;;5090975;28;20048;-81
2023/04/10 02:43:04;;;;;;;70.05;36.38;;;6.50;99.90;;;;;;5090137;28;20056;-83
2023/04/10 02:45:50;;;;;;;62.50;35.50;;;6.40;99.90;;;;;;5091794;28;20559;-83
2023/04/10 02:48:36;;;;;;;63.25;36.35;;;6.40;99.90;;;;;;5073129;28;20155;-81
2023/04/10 02:51:22;;;;;;;65.72;36.80;;;6.40;99.90;;;;;;5070974;28;20106;-81
2023/04/10 02:54:08;;;;;;;64.18;34.53;;;6.40;99.90;;;;;;5091214;28;20093;-82
2023/04/10 02:56:56;;;;;;;59.42;34.42;;;6.40;99.90;;;;;;5091365;28;20058;-82
2023/04/10 02:59:42;;;;;;;63.42;35.40;;;6.40;99.90;;;;;;5098384;28;20051;-82
2023/04/10 03:02:28;;;;;;;68.00;36.83;;;6.40;99.90;;;;;;5077037;28;20055;-83
2023/04/10 03:05:14;;;;;;;60.97;36.22;;;6.40;99.90;;;;;;5073110;28;20503;-83
2023/04/10 03:08:00;;;;;;;60.45;36.63;;;6.30;99.90;;;;;;5073016;28;20491;-83
2023/04/10 03:10:49;;;;;;;68.57;36.70;;;6.30;99.90;;;;;;5090511;28;20514;-81
2023/04/10 03:13:36;;;;;;;62.65;35.20;;;6.30;99.90;;;;;;5060168;28;20137;-83
2023/04/10 03:16:22;;;;;;;63.72;36.95;;;6.30;99.90;;;;;;5072212;28;20052;-83
2023/04/10 03:19:08;;;;;;;62.45;37.28;;;6.30;99.90;;;;;;5090387;28;20415;-83
2023/04/10 03:21:54;;;;;;;71.90;38.13;;;6.30;99.90;;;;;;5077875;28;20075;-81
2023/04/10 03:24:40;;;;;;;71.05;38.45;;;6.20;99.90;;;;;;5081679;28;20062;-83
2023/04/10 03:27:26;;;;;;;71.32;38.33;;;6.30;99.90;;;;;;5076266;28;20074;-81
2023/04/10 03:30:12;;;;;;;62.42;37.28;;;6.20;99.90;;;;;;5091520;28;20040;-83
2023/04/10 03:32:58;;;;;;;67.03;38.20;;;6.20;99.90;;;;;;5090862;28;20052;-83
2023/04/10 03:35:46;;;;;;;66.70;39.03;;;6.20;99.90;;;;;;5090681;28;20051;-82
2023/04/10 03:38:32;;;;;;;68.72;40.90;;;6.10;99.90;;;;;;5072399;28;20549;-82
2023/04/10 03:41:18;;;;;;;71.72;39.55;;;6.10;99.90;;;;;;5090541;28;20048;-83
2023/04/10 03:44:04;;;;;;;69.22;38.75;;;6.10;99.90;;;;;;5088791;28;20454;-82
2023/04/10 03:46:50;;;;;;;69.53;39.50;;;6.10;99.90;;;;;;5090913;28;20044;-81
2023/04/10 03:49:36;;;;;;;65.97;38.30;;;6.10;99.90;;;;;;5091754;28;20407;-81
2023/04/10 03:52:22;;;;;;;68.45;39.15;;;6.10;99.90;;;;;;5085397;28;20146;-82
2023/04/10 03:55:09;;;;;;;68.00;38.88;;;6.10;99.90;;;;;;5091907;28;20420;-84
2023/04/10 03:57:55;;;;;;;62.05;37.00;;;6.10;99.90;;;;;;5093660;28;20044;-83
2023/04/10 04:00:41;;;;;;;64.65;39.42;;;6.10;99.90;;;;;;5076566;28;20048;-84
2023/04/10 04:03:27;;;;;;;69.15;39.38;;;6.10;99.90;;;;;;5091219;28;20048;-84
2023/04/10 04:06:13;;;;;;;69.25;40.33;;;6.10;99.90;;;;;;5072266;28;20056;-83
2023/04/10 04:08:59;;;;;;;68.80;40.33;;;6.10;99.90;;;;;;5095218;28;20189;-84
2023/04/10 04:11:45;;;;;;;72.32;40.13;;;6.10;99.90;;;;;;5093964;28;20044;-84
2023/04/10 04:14:31;;;;;;;73.90;39.95;;;6.10;99.90;;;;;;5092982;28;20564;-83
2023/04/10 04:17:17;;;;;;;73.60;39.38;;;6.20;99.90;;;;;;5094899;28;20134;-82
2023/04/10 04:20:05;;;;;;;68.50;38.55;;;6.10;99.90;;;;;;5095702;28;20052;-81
2023/04/10 04:22:51;;;;;;;73.70;41.45;;;6.10;99.90;;;;;;5084984;28;20052;-82
2023/04/10 04:25:37;;;;;;;73.80;41.80;;;6.10;99.90;;;;;;5080245;28;20075;-82
2023/04/10 04:28:23;;;;;;;65.25;39.10;;;6.10;99.90;;;;;;5080246;28;20059;-83
2023/04/10 04:31:09;;;;;;;72.05;41.30;;;6.20;99.90;;;;;;5094712;28;20044;-82
2023/04/10 04:33:55;;;;;;;70.45;40.03;;;6.20;99.90;;;;;;5093802;28;20048;-82
2023/04/10 04:36:41;;;;;;;71.28;41.83;;;6.20;99.90;;;;;;5075005;28;20471;-81
2023/04/10 04:39:27;;;;;;;69.35;39.75;;;6.30;99.90;;;;;;5078449;28;20143;-83
2023/04/10 04:42:13;;;;;;;74.72;41.20;;;6.30;99.90;;;;;;5094385;28;20058;-82
2023/04/10 04:44:59;;;;;;;69.22;40.00;;;6.30;99.90;;;;;;5093068;28;20090;-83
2023/04/10 04:47:46;;;;;;;71.50;38.08;;;6.30;99.90;;;;;;5095988;28;20092;-83
2023/04/10 04:50:32;;;;;;;74.80;42.75;;;6.30;99.90;;;;;;5101007;28;20132;-82
2023/04/10 04:53:18;;;;;;;65.30;39.03;;;6.30;99.90;;;;;;5104414;28;20048;-83
2023/04/10 04:56:05;;;;;;;69.03;41.22;;;6.30;99.90;;;;;;5106176;28;20047;-83
2023/04/10 04:58:51;;;;;;;66.45;37.00;;;6.30;99.90;;;;;;5102404;28;20071;-83
2023/04/10 05:01:37;;;;;;;63.35;36.53;;;6.30;99.90;;;;;;5104289;28;20404;-83
2023/04/10 05:04:23;;;;;;;66.72;39.70;;;6.30;99.90;;;;;;5104322;28;20525;-82
2023/04/10 05:07:09;;;;;;;64.90;39.65;;;6.30;99.90;;;;;;5098223;28;20122;-82
2023/04/10 05:09:56;;;;;;;68.35;38.38;;;6.30;99.90;;;;;;5096386;28;20080;-84
2023/04/10 05:12:42;;;;;;;70.90;39.97;;;6.40;99.90;;;;;;5095335;28;20094;-84
2023/04/10 05:15:28;;;;;;;67.05;37.67;;;6.50;99.90;;;;;;5076047;28;20044;-85
2023/04/10 05:18:18;;;;;;;69.10;38.85;;;6.50;99.90;;;;;;5076460;28;20066;-84
2023/04/10 05:21:04;;;;;;;68.70;38.78;;;6.50;99.90;;;;;;5093208;28;20695;-86
2023/04/10 05:23:50;;;;;;;63.33;35.80;;;6.60;99.90;;;;;;5093547;28;20059;-84
2023/04/10 05:26:36;;;;;;;73.10;38.20;;;6.60;99.90;;;;;;5092541;28;20051;-81
2023/04/10 05:29:23;;;;;;;61.42;36.60;;;6.60;99.90;;;;;;5076482;28;20051;-83
2023/04/10 05:32:09;;;;;;;66.72;38.30;;;6.60;99.90;;;;;;5080110;28;20129;-84
2023/04/10 05:34:56;;;;;;;63.35;36.67;;;6.60;99.90;;;;;;5092548;28;20052;-84
2023/04/10 05:37:42;;;;;;;64.85;37.78;;;6.60;99.90;;;;;;5094585;28;20055;-83
2023/04/10 05:40:28;;;;;;;61.60;37.20;;;6.70;99.90;;;;;;5094828;28;20054;-83
2023/04/10 05:43:14;;;;;;;62.15;37.35;;;6.70;99.90;;;;;;5095168;28;20105;-83
2023/04/10 05:46:00;;;;;;;62.17;35.65;;;6.70;99.90;;;;;;5093609;28;20163;-83
2023/04/10 05:48:47;;;;;;;64.15;36.97;;;6.70;99.90;;;;;;5077955;28;20055;-86
2023/04/10 05:51:33;;;;;;;61.70;35.63;;;6.80;99.90;;;;;;5096592;28;20040;-82
2023/04/10 05:54:19;;;;;;;56.55;34.90;;;6.90;99.90;;;;;;5094572;28;20151;-81
2023/04/10 05:57:06;;;;;;;58.75;34.60;;;6.90;99.90;;;;;;5082149;28;20048;-83
2023/04/10 05:59:52;;;;;;;61.65;35.47;;;7.00;99.90;;;;;;5076103;28;20147;-83
2023/04/10 06:02:38;;;;;;;55.65;34.38;;;7.10;99.90;;;;;;5092001;28;20100;-84
2023/04/10 06:05:24;;;;;;;59.83;35.53;;;7.20;99.90;;;;;;5092524;28;20784;-83
2023/04/10 06:08:10;;;;;;;53.80;31.52;;;7.20;99.90;;;;;;5093109;28;20048;-84
2023/04/10 06:10:56;;;;;;;58.92;33.80;;;7.40;99.90;;;;;;5073295;28;20492;-81
2023/04/10 06:13:42;;;;;;;58.92;33.47;;;7.60;99.90;;;;;;5092198;28;20062;-82
2023/04/10 06:16:28;;;;;;;55.13;33.00;;;7.60;99.90;;;;;;5091797;28;20047;-84
2023/04/10 06:19:14;;;;;;;56.50;32.53;;;7.70;99.90;;;;;;5073920;28;20495;-80
2023/04/10 06:22:01;;;;;;;53.60;32.67;;;7.80;99.90;;;;;;5092072;28;20051;-79
2023/04/10 06:24:47;;;;;;;49.47;29.70;;;7.90;99.90;;;;;;5090873;28;20055;-78
2023/04/10 06:27:34;;;;;;;50.00;30.23;;;7.90;99.90;;;;;;5073070;28;20051;-83
2023/04/10 06:30:20;;;;;;;52.17;29.90;;;8.00;99.90;;;;;;5072387;28;20478;-79
2023/04/10 06:33:07;;;;;;;52.05;30.15;;;8.10;99.90;;;;;;5078766;28;20500;-82
2023/04/10 06:35:53;;;;;;;43.38;26.55;;;8.20;99.90;;;;;;5091270;28;20044;-76
2023/04/10 06:38:39;;;;;;;45.83;26.75;;;8.30;99.90;;;;;;5092785;28;20051;-78
2023/04/10 06:41:25;;;;;;;41.88;24.60;;;8.40;99.90;;;;;;5090798;28;20567;-76
2023/04/10 06:44:11;;;;;;;46.65;27.02;;;8.60;99.90;;;;;;5091782;28;20052;-78
2023/04/10 06:46:57;;;;;;;42.85;25.10;;;8.80;99.90;;;;;;5091309;28;20148;-78
2023/04/10 06:49:44;;;;;;;39.92;24.38;;;8.90;99.90;;;;;;5077391;28;20071;-79
2023/04/10 06:52:31;;;;;;;40.65;23.85;;;9.00;99.90;;;;;;5092864;28;20075;-78
2023/04/10 06:55:17;;;;;;;45.47;25.42;;;9.00;99.90;;;;;;5093115;28;20464;-79
2023/04/10 06:58:03;;;;;;;41.35;24.92;;;9.10;99.90;;;;;;5092568;28;20101;-82
2023/04/10 07:00:50;;;;;;;41.33;24.98;;;9.10;99.90;;;;;;5045751;28;20488;-79
2023/04/10 07:03:36;;;;;;;43.00;24.45;;;9.10;99.90;;;;;;5091337;28;20091;-78
2023/04/10 07:06:22;;;;;;;37.65;22.70;;;9.20;99.90;;;;;;5091832;28;20052;-80
2023/04/10 07:09:08;;;;;;;37.00;22.42;;;9.40;99.90;;;;;;5091930;28;20044;-79
2023/04/10 07:11:54;;;;;;;39.42;22.45;;;9.70;99.90;;;;;;5089965;28;20052;-77
2023/04/10 07:14:41;;;;;;;32.78;21.30;;;10.00;99.90;;;;;;5091862;28;20496;-80
2023/04/10 07:17:27;;;;;;;39.90;21.95;;;10.20;99.90;;;;;;5091428;28;20399;-78
2023/04/10 07:20:13;;;;;;;41.25;23.20;;;10.40;99.90;;;;;;5091099;28;20051;-78
2023/04/10 07:22:59;;;;;;;37.00;22.20;;;10.60;99.90;;;;;;5091271;28;20077;-79
2023/04/10 07:25:45;;;;;;;36.38;21.20;;;10.70;99.90;;;;;;5092103;28;20135;-79
2023/04/10 07:28:32;;;;;;;32.40;19.88;;;10.80;99.90;;;;;;5091923;28;20063;-79
2023/04/10 07:31:18;;;;;;;33.70;21.52;;;11.00;99.90;;;;;;5091556;28;20040;-78
2023/04/10 07:34:05;;;;;;;32.08;20.58;;;11.20;99.90;;;;;;5091406;28;20044;-81
2023/04/10 07:36:51;;;;;;;29.15;18.73;;;11.40;99.90;;;;;;5090639;28;20491;-81
2023/04/10 07:39:37;;;;;;;30.80;18.77;;;11.60;99.90;;;;;;5089370;28;20066;-78
2023/04/10 07:42:23;;;;;;;30.88;18.73;;;11.90;99.90;;;;;;5091787;28;20055;-84
2023/04/10 07:45:10;;;;;;;32.28;19.63;;;12.00;99.90;;;;;;5097973;28;20048;-88
2023/04/10 07:47:58;;;;;;;30.55;18.60;;;12.10;99.90;;;;;;5095679;28;20102;-86
2023/04/10 07:50:44;;;;;;;29.02;17.38;;;12.10;99.90;;;;;;5079548;28;20047;-85
2023/04/10 07:53:30;;;;;;;29.83;18.35;;;12.10;99.90;;;;;;5095375;28;20381;-80
2023/04/10 07:56:18;;;;;;;29.35;16.65;;;12.20;99.90;;;;;;5074481;28;20056;-78
2023/04/10 07:59:05;;;;;;;31.67;18.38;;;12.30;99.90;;;;;;5093646;28;20040;-78
2023/04/10 08:01:51;;;;;;;32.70;20.00;;;12.40;99.90;;;;;;5093989;28;20044;-80
2023/04/10 08:04:37;;;;;;;33.22;19.90;;;12.50;99.90;;;;;;5076063;28;20399;-80
2023/04/10 08:07:23;;;;;;;28.00;17.33;;;12.50;99.90;;;;;;5096724;28;20050;-79
2023/04/10 08:10:09;;;;;;;29.63;19.23;;;12.50;99.90;;;;;;5084474;28;20101;-78
2023/04/10 08:12:55;;;;;;;32.88;18.80;;;12.70;99.90;;;;;;5094390;28;20044;-78
2023/04/10 08:15:41;;;;;;;29.70;18.83;;;12.90;99.90;;;;;;5079336;28;20682;-78
2023/04/10 08:18:27;;;;;;;33.40;20.08;;;13.30;99.30;;;;;;5079440;28;20054;-78
2023/04/10 08:21:14;;;;;;;34.35;18.83;;;13.50;98.20;;;;;;5062966;28;20078;-80
2023/04/10 08:24:01;;;;;;;27.75;17.98;;;13.60;98.40;;;;;;5093473;28;20059;-79
2023/04/10 08:26:48;;;;;;;32.88;19.33;;;13.70;98.30;;;;;;5061084;28;20051;-78
2023/04/10 08:29:34;;;;;;;30.98;19.83;;;13.80;97.70;;;;;;5073801;28;20056;-78
2023/04/10 08:32:20;;;;;;;32.22;20.30;;;13.70;97.40;;;;;;5095655;28;20423;-78
2023/04/10 08:35:07;;;;;;;30.33;19.23;;;13.80;97.20;;;;;;5094544;28;20048;-80
2023/04/10 08:37:53;;;;;;;33.83;20.67;;;13.80;97.30;;;;;;5080258;28;20044;-77
2023/04/10 08:40:40;;;;;;;33.55;20.23;;;14.00;97.30;;;;;;5098339;28;20059;-77
2023/04/10 08:43:26;;;;;;;35.95;20.05;;;14.00;96.80;;;;;;5095295;28;20052;-76
2023/04/10 08:46:15;;;;;;;29.98;19.35;;;14.20;96.20;;;;;;5083069;28;20044;-81
2023/04/10 08:49:03;;;;;;;31.77;20.85;;;14.30;96.30;;;;;;5075030;28;20117;-79
2023/04/10 08:51:58;;;;;;;31.92;18.63;;;14.40;96.30;;;;;;5074677;28;20412;-81
2023/04/10 08:54:49;;;;;;;30.35;19.90;;;14.60;95.80;;;;;;5077278;28;20036;-83
2023/04/10 08:57:37;;;;;;;40.72;21.17;;;14.70;96.20;;;;;;5077386;28;20040;-79
2023/04/10 09:00:24;;;;;;;31.48;19.00;;;14.80;96.20;;;;;;5093300;28;20047;-82
2023/04/10 09:03:12;;;;;;;33.88;20.63;;;14.70;95.40;;;;;;5092769;28;20091;-85
2023/04/10 09:06:03;;;;;;;35.15;20.27;;;14.60;95.20;;;;;;5056011;28;20048;-79
2023/04/10 09:08:49;;;;;;;33.22;19.83;;;14.80;95.30;;;;;;5027589;28;20103;-80
2023/04/10 09:11:54;;;;;;;30.05;18.83;;;14.90;95.40;;;;;;5044901;28;20495;-79
2023/04/10 09:14:41;;;;;;;31.58;18.85;;;15.00;94.90;;;;;;5071848;28;20484;-79
2023/04/10 09:17:27;;;;;;;29.98;18.65;;;15.10;95.00;;;;;;5072617;28;20097;-87
2023/04/10 09:20:22;;;;;;;26.35;17.42;;;15.00;94.70;;;;;;5040975;28;20124;-81
2023/04/10 09:23:21;;;;;;;31.00;18.45;;;15.00;94.10;;;;;;5074168;28;20055;-80
2023/04/10 09:26:29;;;;;;;28.88;18.38;;;14.90;94.00;;;;;;5084391;28;20087;-82
2023/04/10 09:29:16;;;;;;;25.55;17.30;;;15.00;94.50;;;;;;5066993;28;20527;-81
2023/04/10 09:32:02;;;;;;;26.45;16.90;;;15.20;95.00;;;;;;5071616;28;20457;-79
2023/04/10 09:34:56;;;;;;;43.70;16.50;;;15.40;94.60;;;;;;5071168;28;20044;-83
2023/04/10 09:37:45;;;;;;;27.27;16.80;;;15.40;93.80;;;;;;5072209;28;20408;-82
2023/04/10 09:40:31;;;;;;;26.20;16.70;;;15.30;93.60;;;;;;5058331;28;20053;-80
2023/04/10 09:43:18;;;;;;;31.27;16.13;;;15.30;93.30;;;;;;5071113;28;20121;-81
2023/04/10 09:46:04;;;;;;;25.88;16.75;;;15.40;93.40;;;;;;5072492;28;20048;-82
2023/04/10 09:48:58;;;;;;;25.27;16.02;;;15.40;93.20;;;;;;5072902;28;20794;-82
2023/04/10 09:51:46;;;;;;;22.92;14.75;;;15.60;93.20;;;;;;5071862;28;20053;-78
2023/04/10 09:54:38;;;;;;;26.80;15.35;;;15.70;93.30;;;;;;5072265;28;20412;-77
2023/04/10 09:57:27;;;;;;;25.60;14.15;;;15.70;92.60;;;;;;5079479;28;20057;-78
2023/04/10 10:00:14;;;;;;;22.92;14.18;;;15.70;92.50;;;;;;5071613;28;20044;-79
2023/04/10 10:03:05;;;;;;;28.20;16.13;;;15.90;92.90;;;;;;5071033;28;20415;-79
2023/04/10 10:05:51;;;;;;;21.50;13.10;;;16.00;92.80;;;;;;5071833;28;20048;-82
2023/04/10 10:08:38;;;;;;;22.02;13.25;;;16.00;92.30;;;;;;5072307;28;20049;-79
2023/04/10 10:11:25;;;;;;;18.55;12.50;;;16.00;92.70;;;;;;5071731;28;20048;-76
2023/04/10 10:14:17;;;;;;;20.02;12.45;;;15.90;92.70;;;;;;5071636;28;20052;-75
2023/04/10 10:17:09;;;;;;;22.38;13.88;;;15.90;92.70;;;;;;5071793;28;20044;-78
2023/04/10 10:20:09;;;;;;;24.55;13.57;;;15.60;92.30;;;;;;5072566;28;20099;-82
2023/04/10 10:22:58;;;;;;;19.60;12.95;;;15.60;92.70;;;;;;5074241;28;20052;-78
2023/04/10 10:25:45;;;;;;;20.40;13.73;;;15.40;92.30;;;;;;5074299;28;20095;-80
2023/04/10 10:28:33;;;;;;;23.92;13.32;;;15.40;93.10;;;;;;5059131;28;20052;-85
2023/04/10 10:31:21;;;;;;;18.98;12.68;;;15.30;92.80;;;;;;5071371;28;20041;-79
2023/04/10 10:34:08;;;;;;;18.38;11.93;;;15.30;93.50;;;;;;5070429;28;20059;-77
2023/04/10 10:36:54;;;;;;;19.35;12.18;;;15.40;93.70;;;;;;5071838;28;20048;-81
2023/04/10 10:39:56;;;;;;;18.75;12.27;;;15.40;93.80;;;;;;5070004;28;20474;-75
2023/04/10 10:43:02;;;;;;;18.50;10.93;;;15.50;93.30;;;;;;5071332;28;20065;-81
2023/04/10 10:46:10;;;;;;;17.23;11.27;;;15.60;92.80;;;;;;5035051;28;20052;-76
2023/04/10 10:48:59;;;;;;;15.88;10.75;;;15.50;92.80;;;;;;5071008;28;20058;-77
2023/04/10 10:51:48;;;;;;;14.85;9.60;;;15.50;93.20;;;;;;5072208;28;20103;-82
2023/04/10 10:54:34;;;;;;;15.60;9.82;;;15.60;92.90;;;;;;5070789;28;20060;-76
2023/04/10 10:57:46;;;;;;;16.60;10.80;;;15.50;92.80;;;;;;5070741;28;20196;-78
2023/04/10 11:00:50;;;;;;;16.63;10.38;;;15.60;92.80;;;;;;5093044;28;20048;-82
2023/04/10 11:03:37;;;;;;;13.88;9.25;;;15.70;93.00;;;;;;5092932;28;20628;-77
2023/04/10 11:06:49;;;;;;;16.27;9.70;;;15.60;92.90;;;;;;5092593;28;20048;-75
2023/04/10 11:09:47;;;;;;;14.18;8.90;;;15.50;92.10;;;;;;5091802;28;20529;-75
2023/04/10 11:13:12;;;;;;;13.45;8.50;;;15.60;92.10;;;;;;5072557;28;20055;-78
2023/04/10 11:15:59;;;;;;;15.23;9.18;;;15.50;92.50;;;;;;5072800;28;20138;-79
2023/04/10 11:18:45;;;;;;;16.17;9.23;;;15.50;92.10;;;;;;5065305;28;20052;-76
2023/04/10 11:21:31;;;;;;;14.40;9.27;;;15.50;92.40;;;;;;5058566;28;20071;-77
2023/04/10 11:24:17;;;;;;;13.65;8.88;;;15.50;92.30;;;;;;5048201;28;20045;-78
2023/04/10 11:27:04;;;;;;;12.35;8.43;;;15.60;92.50;;;;;;5066414;28;20056;-76
2023/04/10 11:29:50;;;;;;;13.82;9.27;;;15.60;92.60;;;;;;5091217;28;20073;-80
2023/04/10 11:32:42;;;;;;;11.80;7.40;;;15.60;92.70;;;;;;5090094;28;20047;-76
2023/04/10 11:35:30;;;;;;;13.02;7.95;;;15.70;91.90;;;;;;5072288;28;20040;-79
2023/04/10 11:38:17;;;;;;;10.48;6.70;;;15.60;92.10;;;;;;5089544;28;20052;-87
2023/04/10 11:41:05;;;;;;;10.82;7.28;;;15.60;91.60;;;;;;5089356;28;20059;-79
2023/04/10 11:43:51;;;;;;;12.50;7.78;;;15.80;91.50;;;;;;5072801;28;20415;-85
2023/04/10 11:46:41;;;;;;;12.00;7.40;;;16.20;91.70;;;;;;5090485;28;20040;-82
2023/04/10 11:49:31;;;;;;;12.93;7.25;;;16.50;91.40;;;;;;5089381;28;20048;-81
2023/04/10 11:52:24;;;;;;;11.00;7.35;;;16.70;90.70;;;;;;5090896;28;20087;-76
2023/04/10 11:55:10;;;;;;;10.98;7.15;;;17.20;90.30;;;;;;5089198;28;20149;-81
2023/04/10 11:57:56;;;;;;;12.02;6.65;;;17.70;89.70;;;;;;5089912;28;20051;-78
2023/04/10 12:00:42;;;;;;;10.57;5.70;;;18.20;89.50;;;;;;5091885;28;20112;-78
2023/04/10 12:03:38;;;;;;;9.02;5.68;;;18.30;86.60;;;;;;5077601;28;20052;-78
2023/04/10 12:06:24;;;;;;;11.45;6.32;;;18.30;83.70;;;;;;5092151;28;20047;-81
2023/04/10 12:09:18;;;;;;;9.13;5.80;;;18.60;83.40;;;;;;5089575;28;20056;-77
2023/04/10 12:12:06;;;;;;;10.38;6.82;;;18.60;81.10;;;;;;5071383;28;20045;-79
2023/04/10 12:14:52;;;;;;;11.48;6.78;;;18.60;82.00;;;;;;5089235;28;20135;-80
2023/04/10 12:17:38;;;;;;;12.68;6.68;;;18.50;82.40;;;;;;5058437;28;20052;-77
2023/04/10 12:20:27;;;;;;;12.00;5.90;;;18.20;81.40;;;;;;5089232;28;20090;-79
2023/04/10 12:23:14;;;;;;;8.63;5.55;;;17.90;82.70;;;;;;5088354;28;20044;-78
2023/04/10 12:26:09;;;;;;;9.45;5.93;;;17.50;83.10;;;;;;5090462;28;20047;-82
2023/04/10 12:28:56;;;;;;;;;;;17.20;85.60;;;;;;5093097;28;20097;-75
2023/04/10 12:31:42;;;;;;;9.77;5.88;;;17.00;86.80;;;;;;5076006;28;19928;-76
2023/04/10 12:34:28;;;;;;;11.35;5.63;;;16.80;89.00;;;;;;5077895;28;20062;-78
2023/04/10 12:37:15;;;;;;;10.85;6.20;;;16.70;87.90;;;;;;5092329;28;20036;-79
2023/04/10 12:40:06;;;;;;;9.02;5.75;;;16.50;88.20;;;;;;5060858;28;20056;-78
2023/04/10 12:42:52;;;;;;;11.00;5.30;;;16.40;89.30;;;;;;5063539;28;20064;-74
2023/04/10 12:45:44;;;;;;;9.00;5.38;;;16.20;88.70;;;;;;5093921;28;20387;-76
2023/04/10 12:48:31;;;;;;;8.45;4.90;;;16.10;89.80;;;;;;5090944;28;20120;-77
2023/04/10 12:51:17;;;;;;;12.52;5.18;;;16.10;90.60;;;;;;5075604;28;20148;-77
2023/04/10 12:54:03;;;;;;;8.45;5.10;;;16.10;90.80;;;;;;5090480;28;20055;-78
2023/04/10 12:56:50;;;;;;;7.60;4.80;;;16.10;91.20;;;;;;5091608;28;20052;-77
2023/04/10 12:59:37;;;;;;;36.08;6.82;;;;;;;;;;5077400;28;20054;-77
2023/04/10 13:02:24;;;;;;;17.95;6.20;;;;;;;;;;5090351;28;20450;-77
2023/04/10 13:05:10;;;;;;;11.43;4.55;;;15.90;90.70;;;;;;5090941;28;20514;-77
2023/04/10 13:07:56;;;;;;;8.18;4.80;;;15.90;91.10;;;;;;5059637;28;20060;-77
2023/04/10 13:10:42;;;;;;;6.88;4.45;;;15.80;91.60;;;;;;5073097;28;20055;-75
2023/04/10 13:13:31;;;;;;;8.80;5.00;;;15.70;92.40;;;;;;5073103;28;20044;-81
2023/04/10 13:16:17;;;;;;;8.27;5.15;;;15.70;92.30;;;;;;5077861;28;20495;-78
2023/04/10 13:19:03;;;;;;;11.73;5.85;;;15.70;92.70;;;;;;5093549;28;20036;-79
2023/04/10 13:21:50;;;;;;;8.95;5.13;;;15.70;92.70;;;;;;5095229;28;20113;-79
2023/04/10 13:24:37;;;;;;;10.10;5.80;;;15.60;93.00;;;;;;5073549;28;20066;-82
2023/04/10 13:27:23;;;;;;;9.05;6.30;;;15.60;93.30;;;;;;5092064;28;20097;-85
2023/04/10 13:30:09;;;;;;;10.15;6.28;;;15.50;93.60;;;;;;5074625;28;20048;-84
2023/04/10 13:32:55;;;;;;;9.15;5.63;;;15.50;93.90;;;;;;5075204;28;20086;-83
2023/04/10 13:35:41;;;;;;;8.48;4.90;;;15.40;94.10;;;;;;5075112;28;20506;-79
2023/04/10 13:38:27;;;;;;;9.05;5.63;;;15.30;94.10;;;;;;5093316;28;20048;-79
2023/04/10 13:41:14;;;;;;;8.88;5.82;;;15.40;94.10;;;;;;5097275;28;20055;-81
2023/04/10 13:44:00;;;;;;;9.30;5.72;;;15.40;94.40;;;;;;5081010;28;20053;-78
2023/04/10 13:46:46;;;;;;;11.48;6.45;;;15.30;94.40;;;;;;5094185;28;20048;-82
2023/04/10 13:49:32;;;;;;;8.82;5.93;;;15.30;94.40;;;;;;5073926;28;20052;-84
2023/04/10 13:52:18;;;;;;;11.10;7.47;;;15.20;95.00;;;;;;5079150;28;20499;-85
2023/04/10 13:55:05;;;;;;;12.25;5.90;;;15.10;94.70;;;;;;5063378;28;20055;-79
2023/04/10 13:57:51;;;;;;;11.90;6.10;;;15.00;95.40;;;;;;5091643;28;20059;-79
2023/04/10 14:00:38;;;;;;;9.57;6.03;;;14.90;95.60;;;;;;5077059;28;20054;-79
2023/04/10 14:03:24;;;;;;;10.45;6.10;;;14.90;95.40;;;;;;5060372;28;20059;-81
2023/04/10 14:06:10;;;;;;;11.95;6.25;;;14.80;96.00;;;;;;5040429;28;20049;-82
2023/04/10 14:08:56;;;;;;;13.63;6.38;;;14.80;96.40;;;;;;5038428;28;20048;-79
2023/04/10 14:11:42;;;;;;;10.15;6.35;;;14.80;96.90;;;;;;5074648;28;20166;-78
2023/04/10 14:14:30;;;;;;;10.77;6.75;;;14.80;96.90;;;;;;5063292;28;20125;-80
2023/04/10 14:17:19;;;;;;;11.20;5.65;;;14.70;96.70;;;;;;5057860;28;20056;-78
2023/04/10 14:20:06;;;;;;;12.38;6.03;;;14.80;96.50;;;;;;5071667;28;20048;-79
2023/04/10 14:22:52;;;;;;;11.63;6.40;;;14.70;96.80;;;;;;5057414;28;20052;-83